メインページ
METAR-TAF:

METAR-TAF

空港 :

ゴルガーン, イラン

緯度: 36-49N, 経度: 054-28E, 海抜: 155m

現時点の気象観測

当レポートは52分前の11:00(UTC)に作成
西の風 12kt
気温 9°C
湿度 49%
気圧 1029 hPa
視程10km以上
1,500メートル以下は雲なし、積乱雲なし

METAR: OING 231100Z 26012KT CAVOK 09/M01 Q1029 NOSIG

時間: 15:22 (11:52 UTC)


TAF: 見つかりません

4,000以上の空港の気象観測と天気予報(METAR報とTAF報)

利用可能な観測所は地図上に黄色い丸と赤い丸で示す。

丸の上にカーソルを重ねると観測所名を参照できる。

次にクリックすると気象観測と天気予報を参照できる。

マップの切り替え:黒色「×」印の緑ボタンをクリックして拡大、「-」印の緑ボタンをクリックして縮小、緑色の三角印をクリックして隣りの地図に切り替え


METAR-TAF: